No particular awareness of the weather is required.    There are no Weather-warnings


Meteo18 Weather Cam more information Meteo18 Weather Cam


Thunder radar more information blitzortung!


Rain radar more information rain snow radar


Visit our other weather sites:

Template documentation
and downloads

And another site



Weather Underground History page Text

Daily Summary for November 30, 2017 Units:  English    Metric   Both
« Previous Day
Next Day »
Daily Weekly Monthly Yearly Custom
  High: Low: Average:
Temperature: 37.9 °F 31.6 °F 35.6 °F
Dew Point: 36 °F 30.6 °F 33.8 °F
Humidity: 96 % 90 % 94 %
Wind Speed: 12 mph 0 mph 3.2 mph
Wind Gust: 19 mph - -
Wind:- - WNW
Pressure: 29.9 in 29.8 in -
Precipitation: 0.14 in    
Historical Graphs
 
 
Tabular Data for November 30, 2017
Time Temperature Dew Point Pressure Wind Wind Speed Wind Gust Humidity Rainfall Rate (Hourly)
00:12 36.9 °F 35.1 °F 29.9 in West 2 mph 3 mph 93 % 0 in
00:17 36.9 °F 35.1 °F 29.9 in WNW 4 mph 4 mph 93 % 0 in
00:22 36.9 °F 35.1 °F 29.9 in West 2 mph 4 mph 93 % 0 in
00:37 36.9 °F 35.1 °F 29.9 in WNW 2 mph 6 mph 93 % 0 in
00:47 36.9 °F 35.1 °F 29.9 in WNW 1 mph 5 mph 93 % 0 in
00:52 36.9 °F 35.1 °F 29.9 in West 3 mph 5 mph 93 % 0 in
00:57 36.9 °F 35.1 °F 29.9 in West 2 mph 4 mph 93 % 0 in
01:02 36.7 °F 34.9 °F 29.9 in West 4 mph 4 mph 93 % 0 in
01:17 36.7 °F 34.9 °F 29.9 in WSW 2 mph 7 mph 93 % 0 in
01:22 36.7 °F 34.9 °F 29.9 in WNW 1 mph 7 mph 93 % 0 in
01:42 36.5 °F 34.9 °F 29.9 in WNW 3 mph 6 mph 94 % 0 in
01:47 36.5 °F 34.9 °F 29.9 in West 5 mph 6 mph 94 % 0 in
01:52 36.5 °F 34.7 °F 29.9 in WNW 5 mph 6 mph 93 % 0 in
01:57 36.3 °F 34.5 °F 29.9 in West 5 mph 8 mph 93 % 0 in
02:12 36.3 °F 34.5 °F 29.9 in WNW 5 mph 8 mph 93 % 0 in
02:17 36.3 °F 34.5 °F 29.9 in West 2 mph 10 mph 93 % 0 in
02:22 36.3 °F 34.5 °F 29.9 in WNW 4 mph 10 mph 93 % 0 in
02:37 36.3 °F 34.5 °F 29.9 in West 5 mph 7 mph 93 % 0 in
02:47 36.1 °F 34.5 °F 29.9 in WNW 7 mph 8 mph 94 % 0 in
02:52 36.1 °F 34.5 °F 29.9 in West 4 mph 8 mph 94 % 0 in
02:57 36.1 °F 34.5 °F 29.9 in West 3 mph 7 mph 94 % 0 in
03:02 36.3 °F 34.7 °F 29.9 in West 3 mph 7 mph 94 % 0 in
03:12 36.3 °F 34.7 °F 29.9 in West 3 mph 6 mph 94 % 0 in
03:37 36.3 °F 34.7 °F 29.9 in WNW 5 mph 8 mph 94 % 0 in
03:42 36.3 °F 34.7 °F 29.9 in NW 12 mph 12 mph 94 % 0 in
03:52 36.3 °F 34.7 °F 29.9 in West 4 mph 12 mph 94 % 0 in
04:02 36.3 °F 34.7 °F 29.9 in WNW 4 mph 12 mph 94 % 0 in
04:12 36.1 °F 34.5 °F 29.9 in NW 5 mph 8 mph 94 % 0 in
04:17 36.1 °F 34.5 °F 29.9 in WNW 4 mph 11 mph 94 % 0 in
04:32 36.1 °F 34.5 °F 29.9 in WNW 3 mph 8 mph 94 % 0 in
04:42 36 °F 34.3 °F 29.9 in WNW 2 mph 11 mph 94 % 0.01 in
04:47 36 °F 34.3 °F 29.9 in WNW 7 mph 10 mph 94 % 0.02 in
05:02 36 °F 34.3 °F 29.9 in WNW 2 mph 10 mph 94 % 0.02 in
05:07 36 °F 34.3 °F 29.9 in NW 4 mph 11 mph 94 % 0.02 in
05:12 36 °F 34.3 °F 29.9 in NW 4 mph 11 mph 94 % 0.02 in
05:17 36 °F 34.7 °F 29.9 in NW 1 mph 11 mph 95 % 0.02 in
05:22 36.1 °F 34.9 °F 29.9 in NNW 3 mph 11 mph 95 % 0.02 in
05:42 36.3 °F 34.7 °F 29.9 in WNW 4 mph 10 mph 94 % 0.01 in
05:47 36.3 °F 34.7 °F 29.9 in NW 5 mph 8 mph 94 % 0 in
05:52 36.3 °F 34.7 °F 29.9 in West 2 mph 8 mph 94 % 0 in
06:02 36.3 °F 34.7 °F 29.9 in West 1 mph 8 mph 94 % 0 in
06:12 36.3 °F 34.7 °F 29.9 in WNW 4 mph 9 mph 94 % 0 in
06:17 36.3 °F 34.7 °F 29.9 in NW 3 mph 7 mph 94 % 0 in
06:22 36.3 °F 34.7 °F 29.9 in WNW 2 mph 7 mph 94 % 0 in
06:27 36.3 °F 34.7 °F 29.9 in West 4 mph 7 mph 94 % 0 in
06:32 36.5 °F 34.9 °F 29.9 in WNW 4 mph 7 mph 94 % 0 in
06:37 36.5 °F 34.9 °F 29.9 in WNW 6 mph 7 mph 94 % 0 in
06:42 36.5 °F 34.9 °F 29.9 in WNW 4 mph 10 mph 94 % 0 in
06:52 36.5 °F 34.9 °F 29.9 in NW 5 mph 10 mph 94 % 0 in
06:57 36.5 °F 34.9 °F 29.9 in WNW 7 mph 9 mph 94 % 0 in
07:07 36.5 °F 34.9 °F 29.9 in NW 1 mph 9 mph 94 % 0 in
07:12 36.5 °F 34.9 °F 29.9 in WSW 2 mph 12 mph 94 % 0 in
07:17 36.3 °F 34.7 °F 29.9 in WNW 4 mph 12 mph 94 % 0 in
07:22 36.5 °F 34.9 °F 29.9 in NW 3 mph 9 mph 94 % 0.01 in
07:32 36.3 °F 34.7 °F 29.9 in WNW 2 mph 9 mph 94 % 0.01 in
07:42 36.3 °F 34.7 °F 29.9 in NW 1 mph 10 mph 94 % 0.01 in
07:52 36.3 °F 34.7 °F 29.9 in WNW 7 mph 7 mph 94 % 0.01 in
07:57 36.3 °F 34.7 °F 29.9 in WSW 6 mph 7 mph 94 % 0.01 in
08:02 36.3 °F 34.7 °F 29.9 in WNW 6 mph 12 mph 94 % 0.01 in
08:07 36.3 °F 34.7 °F 29.9 in West 1 mph 12 mph 94 % 0.01 in
08:17 36.3 °F 34.7 °F 29.9 in West 1 mph 12 mph 94 % 0 in
08:22 36.3 °F 34.7 °F 29.9 in NW 2 mph 7 mph 94 % 0 in
08:32 36.3 °F 34.7 °F 29.9 in WNW 2 mph 9 mph 94 % 0 in
08:42 36.5 °F 34.9 °F 29.9 in NW 3 mph 10 mph 94 % 0 in
08:52 36.5 °F 34.9 °F 29.9 in WNW 5 mph 10 mph 94 % 0 in
09:02 36.5 °F 34.9 °F 29.9 in NW 6 mph 11 mph 94 % 0 in
09:17 36.5 °F 34.9 °F 29.9 in West 2 mph 8 mph 94 % 0 in
09:32 36.3 °F 34.5 °F 29.9 in NW 5 mph 11 mph 93 % 0 in
09:42 36.5 °F 34.7 °F 29.9 in WNW 4 mph 11 mph 93 % 0 in
09:47 36.7 °F 34.9 °F 29.9 in West 2 mph 11 mph 93 % 0 in
10:02 37 °F 35.2 °F 29.9 in West 4 mph 6 mph 93 % 0 in
10:12 37.2 °F 35.1 °F 29.9 in NW 2 mph 9 mph 92 % 0 in
10:17 37.6 °F 35.4 °F 29.9 in West 4 mph 9 mph 92 % 0 in
10:27 37.8 °F 35.1 °F 29.9 in WNW 4 mph 11 mph 90 % 0 in
10:32 37.8 °F 35.1 °F 29.9 in WNW 5 mph 9 mph 90 % 0 in
10:47 37.6 °F 35.2 °F 29.9 in WNW 6 mph 13 mph 91 % 0 in
10:57 37.2 °F 34.9 °F 29.9 in WNW 5 mph 13 mph 91 % 0 in
11:02 37.4 °F 35.2 °F 29.9 in NW 3 mph 9 mph 92 % 0 in
11:12 37.6 °F 35.4 °F 29.9 in SW 2 mph 8 mph 92 % 0 in
11:17 37.6 °F 35.2 °F 29.9 in NW 3 mph 8 mph 91 % 0 in
11:22 37.6 °F 35.2 °F 29.9 in WSW 3 mph 9 mph 91 % 0 in
11:27 37.6 °F 35.2 °F 29.9 in West 1 mph 9 mph 91 % 0 in
11:32 37.8 °F 35.4 °F 29.9 in NW 4 mph 9 mph 91 % 0 in
11:37 37.8 °F 35.4 °F 29.9 in West 6 mph 9 mph 91 % 0 in
11:47 37.9 °F 35.6 °F 29.9 in West 5 mph 9 mph 91 % 0 in
11:52 37.9 °F 35.2 °F 29.9 in WNW 6 mph 9 mph 90 % 0 in
12:02 37.8 °F 35.1 °F 29.9 in WNW 4 mph 10 mph 90 % 0 in
12:12 37.8 °F 35.4 °F 29.9 in West 6 mph 9 mph 91 % 0 in
12:17 37.6 °F 35.2 °F 29.9 in West 3 mph 9 mph 91 % 0 in
12:27 37.6 °F 35.2 °F 29.9 in West 3 mph 8 mph 91 % 0 in
12:32 37.6 °F 35.2 °F 29.9 in West 8 mph 8 mph 91 % 0 in
12:37 37.4 °F 35.1 °F 29.9 in West 2 mph 10 mph 91 % 0 in
12:42 37.2 °F 34.9 °F 29.9 in WNW 6 mph 10 mph 91 % 0 in
12:47 37.2 °F 34.9 °F 29.9 in West 3 mph 10 mph 91 % 0 in
12:52 37.2 °F 34.9 °F 29.9 in West 4 mph 10 mph 91 % 0 in
13:02 37.2 °F 35.1 °F 29.9 in West 5 mph 10 mph 92 % 0 in
13:12 37.6 °F 35.4 °F 29.9 in WSW 7 mph 8 mph 92 % 0 in
13:17 37.6 °F 35.2 °F 29.9 in WSW 6 mph 8 mph 91 % 0 in
13:27 37.8 °F 35.1 °F 29.9 in West 2 mph 12 mph 90 % 0 in
13:32 37.9 °F 35.6 °F 29.9 in West 6 mph 12 mph 91 % 0 in
13:47 36.9 °F 34.5 °F 29.9 in WSW 9 mph 13 mph 91 % 0.02 in
13:52 36.7 °F 34.9 °F 29.9 in West 7 mph 13 mph 93 % 0.02 in
13:57 36.7 °F 34.9 °F 29.9 in West 7 mph 12 mph 93 % 0.03 in
14:12 35.2 °F 33.4 °F 29.9 in NW 3 mph 12 mph 93 % 0.04 in
14:22 35.8 °F 34.5 °F 29.9 in West 1 mph 8 mph 95 % 0.05 in
14:27 36 °F 34.3 °F 29.9 in WNW 2 mph 8 mph 94 % 0.05 in
14:42 37 °F 35.4 °F 29.8 in SW 2 mph 5 mph 94 % 0.05 in
14:47 37.6 °F 36 °F 29.8 in SW 1 mph 5 mph 94 % 0.03 in
14:57 37.9 °F 35.8 °F 29.8 in WSW 5 mph 8 mph 92 % 0.02 in
15:12 37 °F 34.3 °F 29.9 in WNW 6 mph 11 mph 90 % 0.01 in
15:22 34.7 °F 32.4 °F 29.8 in WNW 6 mph 12 mph 91 % 0.02 in
15:32 34.2 °F 32.4 °F 29.9 in NW 3 mph 12 mph 93 % 0.02 in
15:37 33.8 °F 32 °F 29.9 in NNW 5 mph 10 mph 93 % 0.02 in
15:57 33.1 °F 31.8 °F 29.9 in WNW 3 mph 9 mph 95 % 0.03 in
16:02 33.1 °F 31.8 °F 29.9 in NNW 2 mph 9 mph 95 % 0.03 in
16:12 33.3 °F 32 °F 29.9 in West 1 mph 5 mph 95 % 0.02 in
16:22 33.4 °F 32.2 °F 29.9 in West 3 mph 5 mph 95 % 0.02 in
16:32 33.6 °F 32.4 °F 29.8 in West 1 mph 6 mph 95 % 0.02 in
16:37 33.6 °F 32.4 °F 29.8 in Calm   6 mph 95 % 0.02 in
16:47 34 °F 32.4 °F 29.9 in WNW 3 mph 4 mph 94 % 0.02 in
16:52 34.2 °F 32.5 °F 29.9 in West 2 mph 4 mph 94 % 0.02 in
17:02 34.3 °F 32.7 °F 29.9 in WNW 2 mph 5 mph 94 % 0.02 in
17:07 34.3 °F 32.7 °F 29.9 in Calm   5 mph 94 % 0.02 in
17:12 34.3 °F 32.7 °F 29.9 in WNW 1 mph 5 mph 94 % 0.02 in
17:17 34.5 °F 32.9 °F 29.9 in West 2 mph 4 mph 94 % 0.01 in
17:22 34.9 °F 33.3 °F 29.9 in WNW 5 mph 5 mph 94 % 0.01 in
17:32 35.1 °F 32.9 °F 29.9 in WNW 2 mph 8 mph 92 % 0.02 in
17:37 35.1 °F 32.9 °F 29.9 in West 2 mph 8 mph 92 % 0.02 in
17:42 35.2 °F 33.1 °F 29.9 in West 4 mph 8 mph 92 % 0.02 in
17:52 35.2 °F 33.4 °F 29.9 in WSW 4 mph 8 mph 93 % 0.01 in
17:57 35.2 °F 33.4 °F 29.9 in West 3 mph 8 mph 93 % 0.02 in
18:02 35.1 °F 33.3 °F 29.9 in WNW 4 mph 7 mph 93 % 0.02 in
18:07 35.1 °F 33.3 °F 29.9 in WNW 2 mph 7 mph 93 % 0.02 in
18:12 35.1 °F 33.3 °F 29.9 in West 2 mph 7 mph 93 % 0.02 in
18:17 35.2 °F 33.4 °F 29.9 in WNW 2 mph 7 mph 93 % 0.02 in
18:22 35.1 °F 33.3 °F 29.9 in West 1 mph 6 mph 93 % 0.02 in
18:32 35.2 °F 33.1 °F 29.9 in West 4 mph 6 mph 92 % 0.01 in
18:37 35.2 °F 33.1 °F 29.9 in West 1 mph 6 mph 92 % 0.01 in
18:42 35.2 °F 33.1 °F 29.9 in WNW 3 mph 9 mph 92 % 0.01 in
18:52 35.2 °F 33.1 °F 29.9 in NW 5 mph 6 mph 92 % 0.01 in
19:02 34.5 °F 31.8 °F 29.9 in NNW 12 mph 12 mph 90 % 0.01 in
19:12 32.5 °F 30.7 °F 29.9 in WNW 8 mph 18 mph 93 % 0.01 in
19:22 32.4 °F 31.1 °F 29.9 in WNW 1 mph 19 mph 95 % 0.01 in
19:42 32.4 °F 31.3 °F 29.9 in Calm   2 mph 96 % 0.01 in
19:47 32.4 °F 31.3 °F 29.9 in Calm   1 mph 96 % 0 in
19:57 32.5 °F 31.5 °F 29.8 in SW 2 mph 3 mph 96 % 0 in
20:22 32.7 °F 31.6 °F 29.8 in West 1 mph 3 mph 96 % 0 in
20:27 32.7 °F 31.6 °F 29.8 in SW 1 mph 3 mph 96 % 0 in
20:32 32.7 °F 31.6 °F 29.8 in Calm   3 mph 96 % 0 in
20:42 32.7 °F 31.6 °F 29.8 in WNW 1 mph 4 mph 96 % 0 in
20:52 33.1 °F 32 °F 29.8 in Calm   4 mph 96 % 0 in
21:02 32.5 °F 31.3 °F 29.8 in East 1 mph 3 mph 95 % 0 in
21:12 32.2 °F 30.9 °F 29.8 in Calm   1 mph 95 % 0 in
21:17 32.2 °F 31.1 °F 29.8 in Calm   1 mph 96 % 0 in
21:27 32.4 °F 31.3 °F 29.8 in NW 2 mph 2 mph 96 % 0 in
21:32 32.4 °F 31.3 °F 29.8 in WNW 5 mph 5 mph 96 % 0 in
21:42 32.2 °F 31.1 °F 29.8 in Calm   8 mph 96 % 0 in
21:47 32.2 °F 31.1 °F 29.8 in WNW 1 mph 8 mph 96 % 0 in
22:02 32.2 °F 31.1 °F 29.8 in North 1 mph 4 mph 96 % 0 in
22:12 32 °F 30.9 °F 29.8 in Calm   3 mph 96 % 0 in
22:17 32 °F 30.9 °F 29.8 in Calm   2 mph 96 % 0 in
22:22 31.8 °F 30.7 °F 29.8 in Calm   1 mph 96 % 0 in
22:27 31.8 °F 30.7 °F 29.8 in Calm   1 mph 96 % 0 in
22:32 31.8 °F 30.7 °F 29.8 in Calm   1 mph 96 % 0 in
22:37 31.8 °F 30.7 °F 29.8 in Calm   1 mph 96 % 0 in
22:42 31.6 °F 30.6 °F 29.8 in Calm   1 mph 96 % 0 in
22:57 31.8 °F 30.7 °F 29.8 in WNW 2 mph 9 mph 96 % 0 in
23:02 31.8 °F 30.7 °F 29.8 in WNW 4 mph 9 mph 96 % 0 in
23:07 31.8 °F 30.7 °F 29.8 in WNW 5 mph 9 mph 96 % 0 in
23:12 31.8 °F 30.7 °F 29.8 in West 3 mph 9 mph 96 % 0 in
23:22 31.8 °F 30.6 °F 29.8 in WSW 2 mph 8 mph 95 % 0 in
23:27 31.8 °F 30.6 °F 29.8 in NW 3 mph 6 mph 95 % 0 in
Meteo18
Compliments of Weather Underground - 4 mb

Script developed by  Jim McMurry - jmcmurry@mwt.net Adapted for the template by  Wim van der Kuil - Leuven-Template.eu

You find our weather info also at:

European Weather Network

Weather Underground

Equipment we use:

Weather-station
Davis Vue

Weather-program
Meteohub

Weather-server
Raspberry PI 2 B+

Provider
1 and 1

Davis Vue

Meteohub

Raspberry PI 2 B+

1 and 1